Time;durP1;ratioP1;P1;durP2;ratioP2;P2;SDS_P1;SDS_P2;PMS_P1;PMS_P2;Temp;Humidity;BMP_temperature;BMP_pressure;BME280_temperature;BME280_humidity;BME280_pressure;Samples;Min_cycle;Max_cycle;Signal;HPM_P1;HPM_P2
2022/05/27 00:04:35;;;;;;;2.87;1.22;;;;;;;;;;4454059;78;28490;-82
2022/05/27 00:10:36;;;;;;;2.50;0.90;;;;;;;;;;4464454;78;28496;-82
2022/05/27 00:16:37;;;;;;;3.05;1.00;;;;;;;;;;4480554;78;28582;-82
2022/05/27 00:22:38;;;;;;;2.20;1.25;;;;;;;;;;4476251;78;28553;-82
2022/05/27 00:28:45;;;;;;;1.72;0.80;;;;;;;;;;4487543;78;28507;-81
2022/05/27 00:34:46;;;;;;;4.17;1.05;;;;;;;;;;4479406;78;28515;-81
2022/05/27 00:40:53;;;;;;;2.90;1.00;;;;;;;;;;4482076;78;28573;-81
2022/05/27 00:46:56;;;;;;;2.98;1.40;;;;;;;;;;4476345;78;28519;-82
2022/05/27 00:52:57;;;;;;;3.62;1.00;;;;;;;;;;4487943;78;28566;-81
2022/05/27 00:59:05;;;;;;;3.35;0.90;;;;;;;;;;4508518;77;28546;-82
2022/05/27 01:05:08;;;;;;;2.77;1.20;;;;;;;;;;4509663;77;28485;-83
2022/05/27 01:11:26;;;;;;;2.92;0.95;;;;;;;;;;4529606;78;28455;-82
2022/05/27 01:17:32;;;;;;;1.98;1.20;;;;;;;;;;4493150;77;28514;-82
2022/05/27 01:30:41;;;;;;;2.42;0.85;;;;;;;;;;4500384;77;28456;-82
2022/05/27 01:36:52;;;;;;;2.50;0.88;;;;;;;;;;4489545;77;28476;-83
2022/05/27 01:43:10;;;;;;;1.62;0.88;;;;;;;;;;4512914;78;28581;-83
2022/05/27 01:49:29;;;;;;;3.05;0.90;;;;;;;;;;4511072;77;28471;-83
2022/05/27 01:55:31;;;;;;;3.00;0.80;;;;;;;;;;4537937;77;28510;-83
2022/05/27 02:01:40;;;;;;;2.75;0.93;;;;;;;;;;4496851;77;28520;-84
2022/05/27 02:07:44;;;;;;;2.50;1.27;;;;;;;;;;4511744;77;28490;-82
2022/05/27 02:13:56;;;;;;;1.80;1.00;;;;;;;;;;4514243;77;28525;-83
2022/05/27 02:19:58;;;;;;;2.25;1.10;;;;;;;;;;4492076;77;28522;-83
2022/05/27 02:26:07;;;;;;;4.03;0.90;;;;;;;;;;4504140;77;28549;-82
2022/05/27 02:32:12;;;;;;;3.60;1.40;;;;;;;;;;4507507;77;28578;-82
2022/05/27 02:38:13;;;;;;;1.92;0.80;;;;;;;;;;4514147;77;28534;-82
2022/05/27 02:44:19;;;;;;;2.75;1.05;;;;;;;;;;4509884;77;28542;-81
2022/05/27 02:50:39;;;;;;;1.85;1.10;;;;;;;;;;4508249;77;29048;-80
2022/05/27 02:56:45;;;;;;;1.35;0.82;;;;;;;;;;4493200;77;28495;-83
2022/05/27 03:02:52;;;;;;;2.30;0.90;;;;;;;;;;4486875;78;28533;-84
2022/05/27 03:09:12;;;;;;;2.02;0.93;;;;;;;;;;4488319;78;28585;-83
2022/05/27 03:22:25;;;;;;;2.85;0.90;;;;;;;;;;4472266;78;28484;-85
2022/05/27 03:28:43;;;;;;;2.33;0.90;;;;;;;;;;4457986;78;28542;-85
2022/05/27 03:34:46;;;;;;;2.60;1.02;;;;;;;;;;4471210;78;28527;-85
2022/05/27 03:40:49;;;;;;;4.20;1.07;;;;;;;;;;4479143;78;28522;-85
2022/05/27 03:46:55;;;;;;;3.05;0.80;;;;;;;;;;4462118;78;28575;-85
2022/05/27 03:52:56;;;;;;;3.00;0.85;;;;;;;;;;4452879;78;28474;-84
2022/05/27 03:58:57;;;;;;;2.12;0.70;;;;;;;;;;4526181;77;28493;-84
2022/05/27 04:05:05;;;;;;;3.20;0.70;;;;;;;;;;4526826;77;28490;-83
2022/05/27 04:11:06;;;;;;;1.67;0.68;;;;;;;;;;4529297;77;28466;-86
2022/05/27 04:23:34;;;;;;;1.50;0.80;;;;;;;;;;4534801;77;28498;-83
2022/05/27 04:29:42;;;;;;;2.37;0.70;;;;;;;;;;4501245;77;28451;-83
2022/05/27 04:35:43;;;;;;;3.37;0.82;;;;;;;;;;4528426;77;28594;-83
2022/05/27 04:41:51;;;;;;;1.87;0.65;;;;;;;;;;4523280;77;28547;-84
2022/05/27 04:47:58;;;;;;;2.55;0.88;;;;;;;;;;4504646;77;28471;-84
2022/05/27 04:53:59;;;;;;;3.50;0.90;;;;;;;;;;4513028;77;28584;-83
2022/05/27 05:00:08;;;;;;;1.22;0.72;;;;;;;;;;4487088;78;28531;-84
2022/05/27 05:06:16;;;;;;;1.17;0.80;;;;;;;;;;4469158;79;28504;-83
2022/05/27 05:12:22;;;;;;;4.25;0.80;;;;;;;;;;4481998;78;28464;-85
2022/05/27 05:18:28;;;;;;;1.90;0.80;;;;;;;;;;4475739;79;28498;-86
2022/05/27 05:24:30;;;;;;;1.37;0.60;;;;;;;;;;4485151;78;28533;-83
2022/05/27 05:30:31;;;;;;;1.35;0.80;;;;;;;;;;4481348;79;28555;-83
2022/05/27 05:36:34;;;;;;;4.10;0.90;;;;;;;;;;4476708;79;28502;-80
2022/05/27 05:42:36;;;;;;;2.40;0.95;;;;;;;;;;4458139;79;28591;-85
2022/05/27 05:48:37;;;;;;;3.08;0.98;;;;;;;;;;4487191;79;28578;-82
2022/05/27 05:54:42;;;;;;;1.02;0.70;;;;;;;;;;4485069;78;28588;-82
2022/05/27 06:00:43;;;;;;;2.13;0.80;;;;;;;;;;4416652;78;28513;-83
2022/05/27 06:06:45;;;;;;;3.17;0.98;;;;;;;;;;4446309;79;28530;-82
2022/05/27 06:12:46;;;;;;;4.70;0.93;;;;;;;;;;4438516;79;28522;-83
2022/05/27 06:18:54;;;;;;;2.90;0.90;;;;;;;;;;4420302;78;28511;-83
2022/05/27 06:24:55;;;;;;;2.22;0.90;;;;;;;;;;4476041;78;28605;-83
2022/05/27 06:37:22;;;;;;;2.17;0.70;;;;;;;;;;4471785;78;28515;-86
2022/05/27 06:43:29;;;;;;;2.12;1.00;;;;;;;;;;4460904;78;28522;-81
2022/05/27 06:49:36;;;;;;;2.25;0.80;;;;;;;;;;4473928;78;28624;-78
2022/05/27 06:55:36;;;;;;;2.98;0.88;;;;;;;;;;4430102;78;28478;-78
2022/05/27 07:01:38;;;;;;;2.67;0.70;;;;;;;;;;4506931;77;28561;-78
2022/05/27 07:07:45;;;;;;;2.00;0.80;;;;;;;;;;4519912;77;28495;-78
2022/05/27 07:13:52;;;;;;;1.85;0.60;;;;;;;;;;4522020;77;28544;-79
2022/05/27 07:19:53;;;;;;;0.80;0.68;;;;;;;;;;4501700;77;28506;-78
2022/05/27 07:25:54;;;;;;;2.37;0.70;;;;;;;;;;4516966;77;28484;-78
2022/05/27 07:31:55;;;;;;;3.17;0.72;;;;;;;;;;4502579;77;28498;-79
2022/05/27 07:38:02;;;;;;;3.02;0.80;;;;;;;;;;4508648;77;28553;-78
2022/05/27 07:44:09;;;;;;;2.65;0.82;;;;;;;;;;4516066;77;28465;-78
2022/05/27 07:50:16;;;;;;;2.52;0.88;;;;;;;;;;4529920;77;28516;-78
2022/05/27 07:56:16;;;;;;;5.15;0.90;;;;;;;;;;4496134;77;28494;-78
2022/05/27 08:02:24;;;;;;;2.20;0.82;;;;;;;;;;4467915;77;28556;-78
2022/05/27 08:08:25;;;;;;;2.62;1.00;;;;;;;;;;4472377;77;28538;-77
2022/05/27 08:14:26;;;;;;;4.12;0.85;;;;;;;;;;4489315;77;28520;-78
2022/05/27 08:20:32;;;;;;;3.52;0.70;;;;;;;;;;4469810;77;29065;-78
2022/05/27 08:26:33;;;;;;;2.45;0.90;;;;;;;;;;4455263;77;28693;-79
2022/05/27 08:32:34;;;;;;;4.47;1.15;;;;;;;;;;4507225;77;28520;-78
2022/05/27 08:38:35;;;;;;;3.08;0.70;;;;;;;;;;4483123;77;28526;-78
2022/05/27 08:44:44;;;;;;;3.65;0.72;;;;;;;;;;4480698;77;28568;-78
2022/05/27 08:50:53;;;;;;;1.77;0.90;;;;;;;;;;4492851;77;28519;-83
2022/05/27 09:03:21;;;;;;;3.85;0.80;;;;;;;;;;4514629;77;28523;-81
2022/05/27 09:09:24;;;;;;;2.70;0.60;;;;;;;;;;4483206;77;28629;-79
2022/05/27 09:15:43;;;;;;;3.58;0.90;;;;;;;;;;4481064;77;28537;-79
2022/05/27 09:21:58;;;;;;;2.15;0.90;;;;;;;;;;4518837;77;28555;-79
2022/05/27 09:28:19;;;;;;;2.45;1.05;;;;;;;;;;4517412;77;28550;-77
2022/05/27 09:34:22;;;;;;;2.33;0.70;;;;;;;;;;4516759;77;28491;-77
2022/05/27 09:40:37;;;;;;;2.05;0.80;;;;;;;;;;4514017;77;28554;-76
2022/05/27 09:46:38;;;;;;;4.00;0.85;;;;;;;;;;4520172;77;28487;-76
2022/05/27 09:52:44;;;;;;;3.72;0.82;;;;;;;;;;4494343;77;28465;-78
2022/05/27 09:58:46;;;;;;;2.80;0.90;;;;;;;;;;4488703;77;28515;-76
2022/05/27 10:04:54;;;;;;;2.75;0.68;;;;;;;;;;4465340;78;28558;-80
2022/05/27 10:10:58;;;;;;;3.00;0.57;;;;;;;;;;4500321;78;28519;-80
2022/05/27 10:31:16;;;;;;;3.37;0.70;;;;;;;;;;4462305;79;28523;-80
2022/05/27 10:37:22;;;;;;;2.22;0.57;;;;;;;;;;4466905;78;28509;-80
2022/05/27 10:43:29;;;;;;;3.65;0.80;;;;;;;;;;4419963;79;28513;-80
2022/05/27 10:49:35;;;;;;;4.90;1.00;;;;;;;;;;4445118;78;28554;-81
2022/05/27 10:55:52;;;;;;;7.37;1.10;;;;;;;;;;4464087;77;28554;-80
2022/05/27 11:02:14;;;;;;;2.30;0.90;;;;;;;;;;4503226;77;28579;-82
2022/05/27 11:08:30;;;;;;;4.30;0.82;;;;;;;;;;4509461;77;28561;-79
2022/05/27 11:21:24;;;;;;;1.98;0.90;;;;;;;;;;4502394;77;28568;-78
2022/05/27 11:27:30;;;;;;;1.98;0.88;;;;;;;;;;4463364;77;28526;-78
2022/05/27 11:33:35;;;;;;;4.25;1.05;;;;;;;;;;4479266;77;28474;-76
2022/05/27 11:39:49;;;;;;;4.05;0.95;;;;;;;;;;4488085;77;28546;-77
2022/05/27 11:46:04;;;;;;;1.52;0.70;;;;;;;;;;4468094;77;28541;-76
2022/05/27 11:52:24;;;;;;;2.75;0.90;;;;;;;;;;4491657;77;28564;-78
2022/05/27 11:58:23;;;;;;;4.03;1.07;;;;;;;;;;4470871;77;28818;-80
2022/05/27 12:04:35;;;;;;;4.10;0.90;;;;;;;;;;4481610;78;28476;-78
2022/05/27 12:10:41;;;;;;;6.60;0.85;;;;;;;;;;4441010;78;28559;-78
2022/05/27 12:16:43;;;;;;;5.22;0.85;;;;;;;;;;4437246;78;28488;-79
2022/05/27 12:22:52;;;;;;;3.42;0.70;;;;;;;;;;4439716;78;28535;-78
2022/05/27 12:28:55;;;;;;;4.15;0.95;;;;;;;;;;4447406;78;28506;-79
2022/05/27 12:35:14;;;;;;;2.52;0.80;;;;;;;;;;4450679;78;28581;-77
2022/05/27 12:41:17;;;;;;;2.77;0.88;;;;;;;;;;4461813;78;28525;-77
2022/05/27 12:47:23;;;;;;;4.03;1.00;;;;;;;;;;4482800;78;28554;-77
2022/05/27 12:53:43;;;;;;;3.12;1.20;;;;;;;;;;4475813;78;28498;-79
2022/05/27 13:06:17;;;;;;;4.47;1.40;;;;;;;;;;4473491;77;28557;-79
2022/05/27 13:19:36;;;;;;;1.60;1.25;;;;;;;;;;4514159;77;28534;-79
2022/05/27 13:25:39;;;;;;;2.15;1.45;;;;;;;;;;4510080;77;28540;-79
2022/05/27 13:31:42;;;;;;;1.45;0.50;;;;;;;;;;4508903;77;28512;-80
2022/05/27 13:37:55;;;;;;;0.60;0.50;;;;;;;;;;4495904;77;28483;-79
2022/05/27 13:43:56;;;;;;;1.67;0.50;;;;;;;;;;4500115;77;28554;-79
2022/05/27 13:49:57;;;;;;;1.75;0.50;;;;;;;;;;4499849;77;28530;-78
2022/05/27 13:56:06;;;;;;;1.52;0.70;;;;;;;;;;4514759;77;28530;-77
2022/05/27 14:02:09;;;;;;;0.60;0.55;;;;;;;;;;4448505;77;28580;-77
2022/05/27 14:08:10;;;;;;;2.83;0.85;;;;;;;;;;4507866;77;28505;-77
2022/05/27 14:14:11;;;;;;;1.02;0.70;;;;;;;;;;4453319;77;28511;-78
2022/05/27 14:22:39;;;;;;;2.17;0.70;;;;;;;;;;4481637;77;28518;-79
2022/05/27 14:33:45;;;;;;;0.75;0.60;;;;;;;;;;4495527;77;28602;-80
2022/05/27 14:39:48;;;;;;;1.73;0.50;;;;;;;;;;4488316;77;28561;-77
2022/05/27 14:45:56;;;;;;;3.20;0.82;;;;;;;;;;4482819;77;28530;-77
2022/05/27 14:51:59;;;;;;;0.88;0.68;;;;;;;;;;4500397;77;28505;-79
2022/05/27 14:58:02;;;;;;;1.30;0.60;;;;;;;;;;4467721;77;28549;-77
2022/05/27 15:04:13;;;;;;;1.30;0.95;;;;;;;;;;4421741;78;28661;-77
2022/05/27 15:10:16;;;;;;;2.00;0.90;;;;;;;;;;4425769;78;28481;-77
2022/05/27 15:23:29;;;;;;;;;;;;;;;;;;4452638;78;28538;-79
2022/05/27 15:35:57;;;;;;;2.85;1.35;;;;;;;;;;4449319;78;28573;-79
2022/05/27 15:41:58;;;;;;;4.03;1.60;;;;;;;;;;4439437;78;28544;-78
2022/05/27 15:47:59;;;;;;;3.87;1.40;;;;;;;;;;4443695;78;28573;-78
2022/05/27 15:54:01;;;;;;;2.87;1.37;;;;;;;;;;4471500;78;28556;-77
2022/05/27 16:00:05;;;;;;;3.25;1.55;;;;;;;;;;4474980;77;28522;-76
2022/05/27 16:06:07;;;;;;;2.12;1.50;;;;;;;;;;4512944;77;28501;-78
2022/05/27 16:12:08;;;;;;;3.37;1.82;;;;;;;;;;4483280;77;28752;-76
2022/05/27 16:18:16;;;;;;;2.27;1.50;;;;;;;;;;4503838;77;28567;-81
2022/05/27 16:24:22;;;;;;;6.00;1.92;;;;;;;;;;4493714;77;28504;-80
2022/05/27 16:30:26;;;;;;;3.00;1.47;;;;;;;;;;4496609;77;28564;-79
2022/05/27 16:36:33;;;;;;;2.72;1.70;;;;;;;;;;4493121;77;28565;-79
2022/05/27 16:42:39;;;;;;;2.37;1.40;;;;;;;;;;4506854;77;29561;-79
2022/05/27 16:48:46;;;;;;;1.75;1.20;;;;;;;;;;4494804;77;28615;-78
2022/05/27 16:54:53;;;;;;;1.90;1.07;;;;;;;;;;4508244;77;28514;-78
2022/05/27 17:00:54;;;;;;;3.40;1.40;;;;;;;;;;4491989;77;28549;-77
2022/05/27 17:07:02;;;;;;;2.50;1.17;;;;;;;;;;4511584;77;28473;-79
2022/05/27 17:13:03;;;;;;;3.25;1.42;;;;;;;;;;4523342;77;28581;-81
2022/05/27 17:19:04;;;;;;;3.42;1.45;;;;;;;;;;4513008;77;28477;-78
2022/05/27 17:25:08;;;;;;;3.52;1.22;;;;;;;;;;4482092;77;28521;-77
2022/05/27 17:31:12;;;;;;;4.42;1.45;;;;;;;;;;4490032;77;28569;-78
2022/05/27 17:37:14;;;;;;;3.27;1.62;;;;;;;;;;4494566;77;28518;-78
2022/05/27 17:43:15;;;;;;;2.08;1.40;;;;;;;;;;4511517;77;28513;-80
2022/05/27 17:55:54;;;;;;;2.58;1.37;;;;;;;;;;4508717;77;28575;-82
2022/05/27 18:01:55;;;;;;;4.58;1.50;;;;;;;;;;4498913;77;28562;-80
2022/05/27 18:07:56;;;;;;;2.62;1.42;;;;;;;;;;4493860;77;28520;-77
2022/05/27 18:13:57;;;;;;;1.98;1.57;;;;;;;;;;4498303;78;28475;-76
2022/05/27 18:19:58;;;;;;;3.30;1.40;;;;;;;;;;4512416;77;28569;-78
2022/05/27 18:25:59;;;;;;;2.12;1.27;;;;;;;;;;4526034;77;28514;-77
2022/05/27 18:32:00;;;;;;;4.47;1.80;;;;;;;;;;4496708;77;28513;-77
2022/05/27 18:38:07;;;;;;;2.80;1.52;;;;;;;;;;4486068;77;28501;-77
2022/05/27 18:44:08;;;;;;;2.80;1.70;;;;;;;;;;4511007;78;28455;-77
2022/05/27 18:50:16;;;;;;;4.47;2.25;;;;;;;;;;4496847;77;28517;-74
2022/05/27 18:56:17;;;;;;;3.87;1.98;;;;;;;;;;4501447;77;28475;-74
2022/05/27 19:02:19;;;;;;;6.20;2.35;;;;;;;;;;4511295;77;28518;-75
2022/05/27 19:08:19;;;;;;;4.33;2.15;;;;;;;;;;4500053;77;28494;-75
2022/05/27 19:14:21;;;;;;;4.60;2.58;;;;;;;;;;4498282;77;28555;-77
2022/05/27 19:26:48;;;;;;;5.65;2.77;;;;;;;;;;4510703;78;28467;-81
2022/05/27 19:32:48;;;;;;;5.90;2.77;;;;;;;;;;4503230;78;28514;-76
2022/05/27 19:38:51;;;;;;;3.58;2.20;;;;;;;;;;4511993;77;28523;-75
2022/05/27 19:44:52;;;;;;;7.60;2.85;;;;;;;;;;4506383;78;28504;-76
2022/05/27 19:50:59;;;;;;;6.05;2.90;;;;;;;;;;4514538;77;28588;-81
2022/05/27 20:09:46;;;;;;;5.12;2.85;;;;;;;;;;4482686;78;28527;-78
2022/05/27 20:15:47;;;;;;;4.25;2.65;;;;;;;;;;4416556;78;28498;-80
2022/05/27 20:21:47;;;;;;;6.37;2.95;;;;;;;;;;4455907;78;28654;-81
2022/05/27 20:27:49;;;;;;;5.50;3.50;;;;;;;;;;4465732;78;28555;-77
2022/05/27 20:33:50;;;;;;;5.17;3.05;;;;;;;;;;4464167;78;28538;-79
2022/05/27 20:39:57;;;;;;;6.10;3.17;;;;;;;;;;4469579;78;28479;-79
2022/05/27 20:45:58;;;;;;;6.97;2.52;;;;;;;;;;4460137;78;28495;-80
2022/05/27 20:52:05;;;;;;;4.40;2.62;;;;;;;;;;4489153;78;28505;-78
2022/05/27 20:58:11;;;;;;;3.62;2.55;;;;;;;;;;4482307;79;28549;-78
2022/05/27 21:04:12;;;;;;;;;;;;;;;;;;4520729;78;28503;-78
2022/05/27 21:10:19;;;;;;;5.58;2.45;;;;;;;;;;4501974;77;20253;-78
2022/05/27 21:16:25;;;;;;;4.37;2.85;;;;;;;;;;4509540;77;28475;-78
2022/05/27 21:22:31;;;;;;;4.58;2.80;;;;;;;;;;4508365;78;28479;-76
2022/05/27 21:28:32;;;;;;;6.17;2.92;;;;;;;;;;4513596;77;28459;-76
2022/05/27 21:34:34;;;;;;;4.83;2.67;;;;;;;;;;4516431;78;28486;-77
2022/05/27 21:40:42;;;;;;;4.28;2.77;;;;;;;;;;4517217;79;28563;-77
2022/05/27 21:46:48;;;;;;;4.75;2.33;;;;;;;;;;4513332;78;28542;-78
2022/05/27 21:52:49;;;;;;;5.93;3.60;;;;;;;;;;4509924;78;28542;-77
2022/05/27 21:58:50;;;;;;;4.45;2.47;;;;;;;;;;4506208;78;28499;-79
2022/05/27 22:04:58;;;;;;;6.62;2.98;;;;;;;;;;4506925;79;28522;-77
2022/05/27 22:17:23;;;;;;;4.20;2.65;;;;;;;;;;4535882;77;28497;-77
2022/05/27 22:23:24;;;;;;;8.20;2.77;;;;;;;;;;4503860;78;28481;-77
2022/05/27 22:29:31;;;;;;;4.35;2.58;;;;;;;;;;4513401;77;28541;-78
2022/05/27 22:35:33;;;;;;;4.15;2.62;;;;;;;;;;4518107;77;28435;-79
2022/05/27 22:41:34;;;;;;;4.00;2.67;;;;;;;;;;4560344;77;28467;-80
2022/05/27 22:47:35;;;;;;;5.28;2.62;;;;;;;;;;4519941;78;28437;-78
2022/05/27 22:53:36;;;;;;;3.75;2.77;;;;;;;;;;4498895;77;28546;-77
2022/05/27 22:59:37;;;;;;;4.03;2.45;;;;;;;;;;4480127;77;28500;-77
2022/05/27 23:05:39;;;;;;;4.58;3.05;;;;;;;;;;4495042;79;28509;-77
2022/05/27 23:11:40;;;;;;;5.95;3.40;;;;;;;;;;4490220;79;28584;-77
2022/05/27 23:24:00;;;;;;;5.78;3.80;;;;;;;;;;4472528;78;28510;-77
2022/05/27 23:30:01;;;;;;;4.70;3.60;;;;;;;;;;4530082;78;28478;-77
2022/05/27 23:36:03;;;;;;;6.53;3.47;;;;;;;;;;4487535;78;28495;-77
2022/05/27 23:42:04;;;;;;;7.03;3.50;;;;;;;;;;4474127;79;28529;-77
2022/05/27 23:48:05;;;;;;;5.65;3.33;;;;;;;;;;4492144;78;28514;-78
2022/05/27 23:54:13;;;;;;;8.15;4.10;;;;;;;;;;4472034;79;28514;-78
